Latest Weather Observations for Port Lincoln Airport

IDS60801

Issued at 7:31 am CDT Wednesday 23 January 2019 (issued every 10 minutes, with the page automatically refreshed every 10 minutes)

About weather observations | Map of weather stations | Latest weather observations for SA | Other Formats
Station Details ID: 018192 Name: PORT LINCOLN AWS Lat: -34.60 Lon: 135.88 Height: 8.5 m
Data from the previous 72 hours. | See also: Recent months at Port Lincoln Airport
Date/Time
CDT
Temp
°C
App
Temp
°C
Dew
Point
°C
Rel
Hum
%
Delta-T
°C
Wind Press
QNH
hPa
Press
MSL
hPa
Rain since
9am
mm
Dir  Spd
km/h
Gust
km/h
Spd
kts
Gust
kts
23/07:30am 20.4 22.0 17.0 81 2.1 ENE 4 6 2 3 1012.1 1012.1 0.0
23/07:00am 19.4 20.2 16.4 83 1.8 ESE 7 9 4 5 1012.2 1012.2 0.0
23/06:30am 19.3 20.4 16.5 84 1.7 SSW 6 9 3 5 1012.0 1012.0 0.0
23/06:00am 18.0 19.5 15.6 86 1.4 SSW 2 6 1 3 1011.5 1011.5 0.0
23/05:30am 17.6 19.2 14.9 84 1.6 CALM 0 6 0 3 1011.6 1011.6 0.0
23/05:00am 18.5 20.3 16.5 88 1.2 S 2 6 1 3 1011.5 1011.5 0.0
23/04:30am 18.5 20.3 15.6 83 1.7 CALM 0 0 0 0 1011.6 1011.6 0.0
23/04:00am 19.6 21.9 16.8 84 1.7 CALM 0 0 0 0 1011.7 1011.7 0.0
23/03:30am 19.5 21.6 16.2 81 2.0 CALM 0 0 0 0 1011.9 1011.9 0.0
23/03:00am 20.3 20.9 16.9 81 2.1 S 9 11 5 6 1011.9 1011.9 0.0
23/02:30am 20.6 21.7 17.2 81 2.1 SE 7 13 4 7 1012.2 1012.2 0.0
23/02:00am 21.1 21.1 17.3 79 2.3 SE 13 17 7 9 1012.4 1012.4 0.0
23/01:30am 21.9 21.2 18.3 80 2.3 SE 19 24 10 13 1012.5 1012.5 0.0
23/01:00am 22.0 21.5 16.9 73 3.1 SSE 15 19 8 10 1012.3 1012.3 0.0
23/12:30am 20.0 20.8 12.5 62 4.2 CALM 0 4 0 2 1012.6 1012.6 0.0
23/12:00am 22.6 21.5 15.4 64 4.3 S 15 19 8 10 1012.3 1012.3 0.0
 
Date/Time
CDT
Temp
°C
App
Temp
°C
Dew
Point
°C
Rel
Hum
%
Delta-T
°C
Wind Press
QNH
hPa
Press
MSL
hPa
Rain since
9am
mm
Dir  Spd
km/h
Gust
km/h
Spd
kts
Gust
kts
22/11:30pm 22.9 21.0 14.2 58 5.1 SSW 17 22 9 12 1012.4 1012.4 0.0
22/11:00pm 23.2 23.1 16.0 64 4.4 SSE 11 20 6 11 1012.5 1012.5 0.0
22/10:30pm 22.2 22.8 11.9 52 5.8 CALM 0 0 0 0 1011.9 1011.9 0.0
22/10:00pm 23.3 22.7 13.5 54 5.7 SE 9 13 5 7 1012.0 1012.0 0.0
22/09:30pm 24.0 24.6 13.2 50 6.3 S 2 9 1 5 1011.7 1011.7 0.0
22/09:00pm 24.9 24.4 10.8 41 7.9 SW 4 11 2 6 1011.3 1011.3 0.0
22/08:30pm 26.3 23.1 10.0 36 9.1 SSE 17 20 9 11 1011.2 1011.2 0.0
22/08:00pm 27.1 24.6 12.3 39 8.6 SE 17 20 9 11 1011.0 1011.0 0.0
22/07:30pm 28.3 25.9 12.6 38 9.2 SE 17 20 9 11 1010.8 1010.8 0.0
22/07:00pm 29.5 28.2 14.9 41 8.9 SE 15 20 8 11 1010.7 1010.7 0.0
22/06:30pm 29.5 28.3 16.0 44 8.4 SE 17 24 9 13 1010.6 1010.6 0.0
22/06:00pm 29.9 27.0 15.2 41 9.0 SSE 24 33 13 18 1010.7 1010.7 0.0
22/05:30pm 31.2 27.6 13.0 33 10.9 SSE 24 32 13 17 1010.8 1010.8 0.0
22/05:00pm 31.4 27.5 13.2 33 10.9 SSE 26 33 14 18 1010.8 1010.8 0.0
22/04:30pm 32.4 28.8 13.1 31 11.6 SSE 24 35 13 19 1011.0 1011.0 0.0
22/04:00pm 32.8 30.9 12.9 29 11.9 SSE 15 24 8 13 1011.1 1011.1 0.0
22/03:30pm 32.7 32.1 15.7 36 10.6 ESE 13 17 7 9 1011.1 1011.1 0.0
22/03:00pm 31.9 30.4 14.1 34 10.8 SSE 15 20 8 11 1011.1 1011.1 0.0
22/02:30pm 31.1 30.3 15.1 38 9.8 SSE 13 19 7 10 1011.1 1011.1 0.0
22/02:00pm 28.4 29.0 18.5 55 6.3 SE 13 24 7 13 1011.4 1011.4 0.0
22/01:30pm 30.2 29.9 18.3 49 7.7 ENE 17 19 9 10 1011.3 1011.3 0.0
22/01:00pm 30.0 30.3 18.8 51 7.2 ENE 15 19 8 10 1011.5 1011.5 0.0
22/12:30pm 28.9 29.5 18.7 54 6.6 ENE 13 15 7 8 1011.8 1011.8 0.0
22/12:00pm 30.8 32.2 19.5 51 7.4 ESE 11 19 6 10 1011.8 1011.8 0.0
22/11:30am 27.3 28.5 19.9 64 4.8 SSE 13 17 7 9 1011.8 1011.8 0.0
22/11:00am 27.4 28.5 18.1 57 5.9 E 9 13 5 7 1012.0 1012.0 0.0
22/10:30am 26.5 27.9 18.6 62 5.0 ENE 9 13 5 7 1012.0 1012.0 0.0
22/10:00am 25.8 26.6 18.2 63 4.8 ENE 11 15 6 8 1011.9 1011.9 0.0
22/09:30am 25.7 26.5 17.4 60 5.2 ENE 9 13 5 7 1011.9 1011.9 0.0
22/09:00am 25.4 26.4 17.8 62 4.8 ENE 9 13 5 7 1011.9 1011.9 0.0
22/08:30am 24.7 25.3 17.7 65 4.4 ENE 11 13 6 7 1011.8 1011.8 0.0
22/08:00am 22.7 24.8 16.3 67 3.9 CALM 0 4 0 2 1011.6 1011.6 0.0
22/07:30am 20.3 20.9 15.3 73 3.0 N 6 6 3 3 1011.4 1011.4 0.0
22/07:00am 18.1 18.8 14.6 80 2.0 NW 4 6 2 3 1011.5 1011.5 0.0
22/06:30am 17.4 17.0 14.1 81 1.9 NNW 9 9 5 5 1011.4 1011.4 0.0
22/06:00am 17.5 17.2 14.4 82 1.8 WNW 9 9 5 5 1011.3 1011.3 0.0
22/05:30am 17.4 17.3 13.9 80 2.0 NW 7 9 4 5 1011.3 1011.3 0.0
22/05:00am 17.4 17.0 14.1 81 1.9 NW 9 11 5 6 1011.3 1011.3 0.0
22/04:30am 17.2 17.1 13.9 81 1.9 NW 7 9 4 5 1011.5 1011.5 0.0
22/04:00am 17.5 17.4 13.8 79 2.1 NW 7 9 4 5 1011.6 1011.6 0.0
22/03:30am 17.7 17.1 13.6 77 2.3 WNW 9 11 5 6 1011.8 1011.8 0.0
22/03:00am 17.6 17.0 13.5 77 2.3 WNW 9 11 5 6 1012.1 1012.1 0.0
22/02:30am 17.7 17.4 13.4 76 2.4 WNW 7 9 4 5 1012.3 1012.3 0.0
22/02:00am 17.9 17.6 13.4 75 2.5 NW 7 9 4 5 1012.6 1012.6 0.0
22/01:30am 18.4 17.5 13.7 74 2.7 NW 11 13 6 7 1013.0 1013.0 0.0
22/01:00am 18.6 18.6 14.1 75 2.6 W 7 7 4 4 1013.3 1013.3 0.0
22/12:30am 18.6 18.8 14.1 75 2.6 W 6 7 3 4 1013.4 1013.4 0.0
22/12:00am 19.0 19.3 14.9 77 2.4 WSW 7 9 4 5 1013.6 1013.6 0.0
 
Date/Time
CDT
Temp
°C
App
Temp
°C
Dew
Point
°C
Rel
Hum
%
Delta-T
°C
Wind Press
QNH
hPa
Press
MSL
hPa
Rain since
9am
mm
Dir  Spd
km/h
Gust
km/h
Spd
kts
Gust
kts
21/11:30pm 19.8 19.8 15.2 75 2.7 SW 9 11 5 6 1013.8 1013.8 0.0
21/11:00pm 21.1 21.0 16.9 77 2.6 S 13 17 7 9 1013.9 1013.9 0.0
21/10:30pm 21.4 20.7 16.4 73 3.0 S 15 17 8 9 1013.9 1013.9 0.0
21/10:00pm 21.5 20.7 16.0 71 3.3 S 15 17 8 9 1013.9 1013.9 0.0
21/09:30pm 22.2 20.4 16.0 68 3.7 S 20 24 11 13 1013.7 1013.7 0.0
21/09:00pm 22.9 21.5 15.5 63 4.4 S 17 20 9 11 1013.7 1013.7 0.0
21/08:30pm 24.1 22.0 15.1 57 5.4 SSE 20 24 11 13 1013.5 1013.5 0.0
21/08:00pm 25.5 23.9 16.1 56 5.7 SSE 19 22 10 12 1013.3 1013.3 0.0
21/07:30pm 26.3 24.3 15.0 49 6.8 S 19 24 10 13 1013.1 1013.1 0.0
21/07:00pm 26.8 25.0 15.5 50 6.9 SSE 19 22 10 12 1012.9 1012.9 0.0
21/06:30pm 27.2 25.6 14.9 47 7.4 SE 17 22 9 12 1013.0 1013.0 0.0
21/06:00pm 27.1 26.9 16.7 53 6.5 SE 13 19 7 10 1013.1 1013.1 0.0
21/05:30pm 27.8 28.0 16.7 50 6.9 SE 11 17 6 9 1013.3 1013.3 0.0
21/05:00pm 25.6 25.1 17.0 59 5.3 SSE 15 17 8 9 1013.2 1013.2 0.0
21/04:30pm 27.4 27.3 18.7 59 5.6 ENE 17 20 9 11 1013.1 1013.1 0.0
21/04:00pm 26.8 26.6 18.4 60 5.3 ENE 17 20 9 11 1013.1 1013.1 0.0
21/03:30pm 26.8 26.2 18.4 60 5.3 ENE 19 24 10 13 1013.3 1013.3 0.0
21/03:00pm 26.7 25.6 17.8 58 5.6 SE 20 26 11 14 1013.6 1013.6 0.0
21/02:30pm 26.1 23.8 17.5 59 5.4 SE 26 32 14 17 1013.6 1013.6 0.0
21/02:00pm 26.7 25.2 18.6 61 5.2 SSE 24 28 13 15 1013.7 1013.7 0.0
21/01:30pm 26.4 25.6 16.1 53 6.3 SE 15 20 8 11 1013.9 1013.9 0.0
21/01:00pm 26.3 26.6 18.7 63 4.9 E 15 20 8 11 1014.3 1014.3 0.0
21/12:30pm 26.3 27.2 18.4 61 5.0 SE 11 17 6 9 1014.7 1014.7 0.0
21/12:00pm 24.9 25.2 16.9 61 4.9 SE 11 15 6 8 1014.8 1014.8 0.0
21/11:30am 23.9 24.7 17.4 67 4.0 SSE 9 17 5 9 1015.3 1015.3 0.0
21/11:00am 23.6 23.8 17.6 69 3.7 SSE 13 20 7 11 1015.6 1015.6 0.0
21/10:30am 23.5 23.8 17.9 71 3.5 E 13 24 7 13 1015.7 1015.7 0.0
21/10:00am 21.9 21.9 17.3 75 2.8 SSE 13 20 7 11 1015.8 1015.8 0.0
21/09:30am 21.6 20.9 17.4 77 2.6 SSE 17 20 9 11 1015.9 1015.9 0.0
21/09:29am 22.0 21.5 17.8 77 2.6 SSE 17 20 9 11 1015.9 1015.9 0.0
21/09:00am 21.9 22.9 17.7 77 2.6 SSE 9 15 5 8 1016.3 1016.3 0.0
21/08:30am 21.4 22.7 17.6 79 2.3 ESE 7 11 4 6 1016.2 1016.2 0.0
21/08:00am 20.5 21.0 17.5 83 1.8 ESE 11 17 6 9 1016.0 1016.0 0.0
21/07:30am 19.5 20.5 17.8 90 1.0 SE 9 11 5 6 1015.7 1015.7 0.0
21/07:00am 19.3 19.9 17.6 90 1.0 ESE 11 13 6 7 1015.5 1015.5 0.0
21/06:30am 19.1 19.1 17.2 89 1.2 ESE 13 17 7 9 1015.3 1015.3 0.0
21/06:00am 19.1 19.6 17.4 90 1.0 ESE 11 17 6 9 1015.4 1015.4 0.0
21/05:30am 18.6 18.8 16.8 89 1.1 ESE 11 13 6 7 1015.4 1015.4 0.0
21/05:19am 18.7 18.5 16.7 88 1.2 ESE 13 19 7 10 1015.2 1015.2 0.0
21/05:00am 19.0 18.9 17.0 88 1.2 ESE 13 17 7 9 1015.2 1015.2 0.0
21/04:30am 19.0 19.7 17.0 88 1.2 ESE 9 13 5 7 1015.5 1015.5 0.0
21/04:00am 18.9 19.2 16.9 88 1.2 SE 11 17 6 9 1015.8 1015.8 0.0
21/03:30am 18.7 19.2 16.5 87 1.3 ESE 9 9 5 5 1016.4 1016.4 0.0
21/03:00am 19.3 19.6 16.9 86 1.4 ESE 11 15 6 8 1016.7 1016.7 0.0
21/02:30am 19.4 18.2 17.0 86 1.5 SE 19 24 10 13 1016.4 1016.4 0.0
21/02:00am 19.3 18.6 17.3 88 1.2 SE 17 22 9 12 1016.6 1016.6 0.0
21/01:30am 19.6 18.8 17.0 85 1.6 SE 17 24 9 13 1017.2 1017.2 0.0
21/01:00am 18.6 18.2 16.2 86 1.4 SSE 13 15 7 8 1017.7 1017.7 0.0
21/12:30am 18.1 19.9 16.4 90 1.0 S 2 13 1 7 1018.0 1018.0 0.0
21/12:00am 16.7 18.0 14.0 84 1.5 CALM 0 0 0 0 1018.5 1018.5 0.0
 
Date/Time
CDT
Temp
°C
App
Temp
°C
Dew
Point
°C
Rel
Hum
%
Delta-T
°C
Wind Press
QNH
hPa
Press
MSL
hPa
Rain since
9am
mm
Dir  Spd
km/h
Gust
km/h
Spd
kts
Gust
kts
20/11:30pm 18.5 18.7 15.7 84 1.6 SSW 9 11 5 6 1018.8 1018.8 0.0
20/11:00pm 18.6 18.6 15.1 80 2.0 SSW 9 9 5 5 1019.3 1019.3 0.0
20/10:30pm 18.9 18.4 15.0 78 2.3 SSW 11 13 6 7 1019.2 1019.2 0.0
20/10:00pm 18.5 18.4 15.0 80 2.0 SSW 9 11 5 6 1019.2 1019.2 0.0
20/09:30pm 18.7 18.8 14.4 76 2.5 WSW 7 9 4 5 1019.3 1019.3 0.0
20/09:00pm 20.4 19.4 15.6 74 2.8 S 15 19 8 10 1019.0 1019.0 0.0
20/08:30pm 21.8 19.6 14.9 65 4.1 S 20 24 11 13 1018.9 1018.9 0.0
20/08:00pm 22.9 20.7 15.0 61 4.7 S 20 22 11 12 1018.7 1018.7 0.0
20/07:30pm 23.8 21.6 15.0 57 5.2 S 20 26 11 14 1018.5 1018.5 0.0
20/07:00pm 23.8 21.2 15.0 57 5.3 SSE 22 30 12 16 1017.8 1017.8 0.0
20/06:30pm 25.4 21.8 14.2 50 6.6 SSE 26 32 14 17 1018.3 1018.3 0.0
20/06:00pm 24.8 21.2 11.7 44 7.4 SSE 22 26 12 14 1018.0 1018.0 0.0
20/05:30pm 24.1 20.8 13.9 53 6.0 SE 24 28 13 15 1018.2 1018.2 0.0
20/05:00pm 23.3 20.1 15.4 61 4.7 SE 26 30 14 16 1018.5 1018.5 0.0
20/04:30pm 25.2 22.2 14.9 52 6.2 SE 24 30 13 16 1018.6 1018.6 0.0
20/04:00pm 24.6 21.1 12.2 46 7.1 SE 22 30 12 16 1018.8 1018.8 0.0
20/03:30pm 24.7 22.3 15.3 56 5.6 SE 22 28 12 15 1018.9 1018.9 0.0
20/03:00pm 24.3 22.8 15.2 57 5.4 ESE 17 22 9 12 1019.3 1019.3 0.0
20/02:30pm 24.8 23.2 16.0 58 5.3 SE 19 26 10 14 1019.6 1019.6 0.0
20/02:00pm 24.6 22.5 16.1 59 5.2 SSE 22 30 12 16 1019.7 1019.7 0.0
20/01:30pm 23.5 20.6 15.0 59 5.1 SSE 24 32 13 17 1020.0 1020.0 0.0
20/01:00pm 23.5 22.3 15.0 59 5.1 ESE 15 22 8 12 1020.7 1020.7 0.0
20/12:30pm 23.2 21.9 15.8 63 4.5 ENE 17 20 9 11 1020.9 1020.9 0.0
20/12:00pm 22.8 21.7 16.4 67 3.9 E 17 28 9 15 1021.1 1021.1 0.0
20/11:30am 22.0 19.6 15.4 66 3.9 E 22 32 12 17 1021.0 1021.0 0.0
20/11:00am 21.2 17.5 15.1 68 3.6 ESE 28 35 15 19 1021.1 1021.1 0.0
20/10:30am 22.1 18.8 15.0 64 4.2 E 26 35 14 19 1021.3 1021.3 0.0
20/10:00am 21.5 18.3 15.3 68 3.7 ESE 26 33 14 18 1021.3 1021.3 0.0
20/09:30am 21.5 18.3 15.3 68 3.7 ESE 26 33 14 18 1021.4 1021.4 0.0
20/09:00am 21.0 17.8 15.3 70 3.4 ESE 26 33 14 18 1021.6 1021.6 0.0
20/08:52am 20.3 17.0 15.1 72 3.1 ESE 26 33 14 18 1021.6 1021.6 0.0
20/08:30am 20.2 17.5 15.6 75 2.7 SE 24 30 13 16 1021.5 1021.5 0.0
20/08:00am 19.2 16.8 15.3 78 2.3 SE 22 30 12 16 1021.4 1021.4 0.0
20/07:59am 19.1 16.2 15.2 78 2.3 SE 24 30 13 16 1021.4 1021.4 0.0

Other Formats:

Comma delimited format used in spreadsheet applications
http://www.bom.gov.au/fwo/IDS60801/IDS60801.95661.axf

JavaScript Object Notation format (JSON) in row-major order
http://www.bom.gov.au/fwo/IDS60801/IDS60801.95661.json